WA4OPQ-2 Weather Reports


Display with metric or nautical units.
time (UTC)temp
F
wind
direction
speed
MPH
gust
MPH
rain 1hr
in
rain 24hr
in
rain mn
in
humidity
%
barometer
mb
20240715001531 86 336 0.0 0.0 0.00 0.00 0.00 70 1017.3
20240715000546 86 337 0.0 0.0 0.00 0.00 0.00 70 1017.3
20240714235608 87 335 0.0 1.0 0.00 0.00 0.00 68 1017.0
20240714234621 87 359 0.0 0.0 0.00 0.00 0.00 67 1016.8
20240714233622 88 250 2.0 2.0 0.00 0.00 0.00 66 1016.6
20240714232631 88 348 0.0 0.0 0.00 0.00 0.00 64 1016.4
20240714231651 89 7 0.0 1.0 0.00 0.00 0.00 61 1016.5
20240714230706 89 306 1.0 1.0 0.00 0.00 0.00 58 1016.4
20240714225721 90 330 0.0 1.0 0.00 0.00 0.00 57 1016.3
20240714224716 91 314 1.0 1.0 0.00 0.00 0.00 58 1016.5
20240714223724 89 25 1.0 1.0 0.00 0.00 0.00 57 1016.5
20240714222726 88 352 0.0 1.0 0.00 0.00 0.00 63 1016.6
20240714221801 85 301 0.0 1.0 0.00 0.00 0.00 66 1016.9
20240714220836 83 131 0.0 1.0 0.00 0.00 0.00 68 1017.1
20240714215851 85 307 3.0 4.0 0.00 0.00 0.00 63 1017.3
20240714214846 86 329 0.0 1.0 0.00 0.00 0.00 63 1017.6
20240714213917 89 305 3.0 4.0 0.00 0.00 0.00 56 1017.3
20240714212921 94 348 1.0 1.0 0.00 0.00 0.00 48 1016.7
20240714211917 96 329 1.0 2.0 0.00 0.00 0.00 46 1016.3
20240714210911 95 39 2.0 2.0 0.00 0.00 0.00 48 1016.3
20240714205931 96 5 0.0 1.0 0.00 0.00 0.00 46 1016.3
20240714204916 93 302 1.0 2.0 0.00 0.00 0.00 51 1016.7
20240714203921 93 296 1.0 2.0 0.00 0.00 0.00 48 1016.6
20240714202921 93 290 4.0 4.0 0.00 0.00 0.00 46 1016.4
20240714201951 94 266 3.0 3.0 0.00 0.00 0.00 44 1016.7
20240714201011 99 279 3.0 3.0 0.00 0.00 0.00 39 1016.6
20240714200030 100 344 1.0 2.0 0.00 0.00 0.00 39 1016.6
20240714195046 99 303 2.0 2.0 0.00 0.00 0.00 39 1016.7
20240714194056 99 171 2.0 3.0 0.00 0.00 0.00 38 1016.9
20240714193051 100 336 1.0 1.0 0.00 0.00 0.00 39 1017.1
20240714192111 100 10 1.0 2.0 0.00 0.00 0.00 40 1017.3
20240714191121 99 194 4.0 5.0 0.00 0.00 0.00 40 1017.3
20240714190141 99 35 3.0 3.0 0.00 0.00 0.00 39 1017.6
20240714185151 99 0 0.0 1.0 0.00 0.00 0.00 39 1017.8
20240714184211 98 223 0.0 1.0 0.00 0.00 0.00 40 1017.8
20240714183246 98 278 2.0 3.0 0.00 0.00 0.00 42 1018.1
20240714182251 98 332 1.0 2.0 0.00 0.00 0.00 41 1018.3
20240714181301 97 32 0.0 1.0 0.00 0.00 0.00 40 1018.5
20240714180316 96 331 1.0 1.0 0.00 0.00 0.00 46 1018.7
20240714175326 95 296 1.0 2.0 0.00 0.00 0.00 45 1018.9
20240714174346 95 50 2.0 2.0 0.00 0.00 0.00 44 1019.1
20240714173346 95 330 1.0 1.0 0.00 0.00 0.00 46 1019.3
20240714172356 97 49 0.0 1.0 0.00 0.00 0.00 45 1019.1
20240714171406 96 355 0.0 1.0 0.00 0.00 0.00 46 1019.5
20240714170421 95 4 0.0 1.0 0.00 0.00 0.00 45 1019.6
20240714165429 94 51 0.0 0.0 0.00 0.00 0.00 48 1019.7
20240714164446 93 305 1.0 2.0 0.00 0.00 0.00 49 1020.0
20240714163436 93 321 1.0 2.0 0.00 0.00 0.00 52 1020.2
20240714162446 92 337 1.0 1.0 0.00 0.00 0.00 52 1020.2
20240714161506 93 56 0.0 0.0 0.00 0.00 0.00 53 1020.2
20240714160511 92 76 0.0 0.0 0.00 0.00 0.00 54 1020.5
20240714155456 90 64 0.0 0.0 0.00 0.00 0.00 56 1020.6
20240714154516 91 60 0.0 0.0 0.00 0.00 0.00 55 1020.4
20240714153526 91 80 0.0 0.0 0.00 0.00 0.00 56 1020.6
20240714152523 91 72 0.0 0.0 0.00 0.00 0.00 53 1020.5
20240714151546 90 62 0.0 0.0 0.00 0.00 0.00 58 1020.5
20240714150617 89 64 0.0 0.0 0.00 0.00 0.00 58 1020.8
20240714145626 88 83 0.0 0.0 0.00 0.00 0.00 62 1020.6
20240714144646 87 63 0.0 0.0 0.00 0.00 0.00 63 1020.7
20240714143715 86 64 0.0 0.0 0.00 0.00 0.00 64 1020.7
20240714142745 85 63 0.0 0.0 0.00 0.00 0.00 68 1020.8
20240714141810 84 72 0.0 0.0 0.00 0.00 0.00 70 1020.8
20240714140821 82 64 0.0 0.0 0.00 0.00 0.00 73 1021.0
20240714135831 80 64 0.0 0.0 0.00 0.00 0.00 77 1021.2
20240714134841 78 64 0.0 0.0 0.00 0.00 0.00 80 1021.3
20240714133851 77 62 0.0 0.0 0.00 0.00 0.00 84 1021.3
20240714132906 75 63 0.0 0.0 0.00 0.00 0.00 86 1021.1
20240714131931 74 63 0.0 0.0 0.00 0.00 0.00 87 1021.3
20240714130946 73 62 0.0 0.0 0.00 0.00 0.00 86 1021.2
20240714125957 73 63 0.0 0.0 0.00 0.00 0.00 86 1021.1
20240714125031 73 62 0.0 0.0 0.00 0.00 0.00 85 1021.3
20240714124018 73 65 0.0 0.0 0.00 0.00 0.00 87 1021.0
20240714123016 72 62 0.0 0.0 0.00 0.00 0.00 88 1021.2
20240714122021 71 60 0.0 0.0 0.00 0.00 0.00 89 1021.2
20240714121026 70 61 0.0 0.0 0.00 0.00 0.00 90 1021.3
20240714120026 69 59 0.0 0.0 0.00 0.00 0.00 92 1021.2
20240714115046 68 60 0.0 0.0 0.00 0.00 0.00 92 1021.4
20240714114045 68 58 0.0 0.0 0.00 0.00 0.00 92 1021.4
20240714113051 68 59 0.0 0.0 0.00 0.00 0.00 92 1021.3
20240714112106 68 59 0.0 0.0 0.00 0.00 0.00 92 1021.4
20240714111115 68 59 0.0 0.0 0.00 0.00 0.00 91 1021.2
20240714110126 68 60 0.0 0.0 0.00 0.00 0.00 91 1021.2
20240714105137 68 60 0.0 0.0 0.00 0.00 0.00 91 1021.0
20240714104135 68 60 0.0 0.0 0.00 0.00 0.00 91 1020.8
20240714103131 68 58 0.0 0.0 0.00 0.00 0.00 90 1020.7
20240714102157 68 58 0.0 0.0 0.00 0.00 0.00 91 1020.7
20240714101204 68 59 0.0 0.0 0.00 0.00 0.00 91 1020.7
20240714100231 68 59 0.0 0.0 0.00 0.00 0.00 90 1020.6
20240714095237 68 59 0.0 0.0 0.00 0.00 0.00 90 1020.5
20240714094251 68 59 0.0 0.0 0.00 0.00 0.00 91 1020.5
20240714093246 68 59 0.0 0.0 0.00 0.00 0.00 91 1020.2
20240714092307 68 59 0.0 0.0 0.00 0.00 0.00 90 1020.1
20240714091311 69 61 0.0 0.0 0.00 0.00 0.00 89 1020.2
20240714090326 69 59 0.0 0.0 0.00 0.00 0.00 89 1020.1
20240714085337 69 59 0.0 0.0 0.00 0.00 0.00 89 1020.3
20240714084401 69 59 0.0 0.0 0.00 0.00 0.00 89 1020.2
20240714083406 69 59 0.0 0.0 0.00 0.00 0.00 89 1020.1
20240714082411 69 58 0.0 0.0 0.00 0.00 0.00 89 1020.3
20240714081416 69 58 0.0 0.0 0.00 0.00 0.00 89 1020.3
20240714080421 69 58 0.0 0.0 0.00 0.00 0.00 88 1020.3
20240714075406 69 58 0.0 0.0 0.00 0.00 0.00 88 1020.2
20240714074421 70 32 0.0 0.0 0.00 0.00 0.00 88 1020.2
20240714073431 70 53 0.0 0.0 0.00 0.00 0.00 89 1020.6
20240714072511 70 54 0.0 0.0 0.00 0.00 0.00 89 1020.7
20240714071457 70 54 0.0 0.0 0.00 0.00 0.00 89 1020.7
20240714070511 70 54 0.0 0.0 0.00 0.00 0.00 89 1020.9
20240714065516 70 54 0.0 0.0 0.00 0.00 0.00 89 1020.8
20240714064526 70 54 0.0 0.0 0.00 0.00 0.00 88 1020.9
20240714063531 70 54 0.0 0.0 0.00 0.00 0.00 88 1020.8
20240714062556 71 55 0.0 0.0 0.00 0.00 0.00 87 1021.0
20240714061616 71 55 0.0 0.0 0.00 0.00 0.00 87 1021.1
20240714060637 71 55 0.0 0.0 0.00 0.00 0.00 87 1021.2
20240714055637 71 55 0.0 0.0 0.00 0.00 0.00 87 1021.2
20240714054656 71 55 0.0 0.0 0.00 0.00 0.00 87 1021.1
20240714053648 71 55 0.0 0.0 0.00 0.00 0.00 87 1021.3
20240714052701 72 53 0.0 0.0 0.00 0.00 0.00 87 1021.3
20240714051817 72 52 0.0 0.0 0.00 0.00 0.00 87 1021.4
20240714051721 72 52 0.0 0.0 0.00 0.00 0.00 87 1021.4
20240714050751 72 52 0.0 0.0 0.00 0.00 0.00 86 1021.6
20240714045746 72 53 0.0 0.0 0.00 0.00 0.00 86 1021.5
20240714044806 72 53 0.0 0.0 0.00 0.00 0.00 86 1021.6
20240714043831 73 53 0.0 0.0 0.00 0.00 0.00 85 1021.4
20240714042831 73 54 0.0 0.0 0.00 0.00 0.00 85 1021.3
20240714041901 73 52 0.0 0.0 0.00 0.00 0.00 85 1021.6
20240714040906 73 52 0.0 0.0 0.00 0.00 0.00 85 1021.2
20240714035916 73 52 0.0 0.0 0.00 0.00 0.00 85 1021.4
20240714034936 73 51 0.0 0.0 0.00 0.00 0.00 85 1021.4
20240714033939 73 51 0.0 0.0 0.00 0.00 0.00 85 1021.4
20240714033011 74 52 0.0 0.0 0.00 0.00 0.00 84 1021.4
20240714032046 74 52 0.0 0.0 0.00 0.00 0.00 85 1021.4
20240714031037 75 52 0.0 0.0 0.00 0.00 0.00 84 1021.2
20240714030051 75 52 0.0 0.0 0.00 0.00 0.00 84 1021.1
20240714025056 75 52 0.0 0.0 0.00 0.00 0.00 82 1021.3
20240714024106 76 52 0.0 0.0 0.00 0.00 0.00 82 1021.1
20240714023116 76 52 0.0 0.0 0.00 0.00 0.00 80 1020.8
20240714022126 77 52 0.0 0.0 0.00 0.00 0.00 79 1020.6
20240714021131 77 52 0.0 0.0 0.00 0.00 0.00 79 1020.5
20240714020201 77 52 0.0 0.0 0.00 0.00 0.00 79 1020.6
20240714015206 78 53 0.0 0.0 0.00 0.00 0.00 79 1020.3
20240714014211 78 53 0.0 0.0 0.00 0.00 0.00 77 1020.3
20240714013216 80 8 0.0 0.0 0.00 0.00 0.00 75 1020.2
20240714012241 80 8 0.0 0.0 0.00 0.00 0.00 74 1020.3
20240714011306 81 8 0.0 0.0 0.00 0.00 0.00 71 1020.2
20240714010316 82 8 0.0 0.0 0.00 0.00 0.00 69 1020.0
20240714005346 83 8 0.0 0.0 0.00 0.00 0.00 66 1020.1
20240714004411 85 9 0.0 1.0 0.00 0.00 0.00 65 1019.9
20240714003420 86 7 0.0 0.0 0.00 0.00 0.00 63 1020.0
20240714002436 86 8 0.0 0.0 0.00 0.00 0.00 62 1020.1